createdAt,value
2022-10-11T00:00:47.260Z,2.77
2022-10-11T00:03:16.331Z,3.07
2022-10-11T00:05:44.552Z,2.80
2022-10-11T00:08:12.585Z,3.73
2022-10-11T00:10:40.175Z,2.97
2022-10-11T00:13:08.240Z,3.23
2022-10-11T00:15:35.979Z,2.90
2022-10-11T00:18:05.523Z,3.30
2022-10-11T00:20:34.590Z,3.17
2022-10-11T00:23:02.158Z,3.40
2022-10-11T00:25:29.723Z,2.87
2022-10-11T00:27:57.329Z,3.30
2022-10-11T00:30:24.918Z,3.33
2022-10-11T00:32:52.528Z,3.33
2022-10-11T00:35:20.125Z,2.93
2022-10-11T00:37:49.184Z,3.00
2022-10-11T00:40:18.677Z,3.73
2022-10-11T00:42:46.567Z,2.73
2022-10-11T00:45:48.007Z,3.63
2022-10-11T00:48:20.719Z,3.00
2022-10-11T00:50:51.662Z,4.03
2022-10-11T00:53:20.648Z,3.20
2022-10-11T00:55:52.048Z,2.83
2022-10-11T00:58:20.369Z,3.00
2022-10-11T01:00:48.043Z,3.43
2022-10-11T01:03:16.918Z,3.20
2022-10-11T01:05:45.338Z,3.00
2022-10-11T01:08:13.355Z,3.13
2022-10-11T01:10:42.357Z,4.37
2022-10-11T01:13:17.542Z,3.73
2022-10-11T01:15:51.174Z,3.00
2022-10-11T01:18:24.308Z,3.67
2022-10-11T01:20:58.601Z,2.60
2022-10-11T01:23:50.010Z,3.27
2022-10-11T01:26:59.915Z,3.13
2022-10-11T01:29:38.030Z,2.93
2022-10-11T01:32:09.637Z,2.90
2022-10-11T01:34:41.113Z,3.50
2022-10-11T01:37:13.277Z,3.23
2022-10-11T01:39:43.836Z,2.80
2022-10-11T01:42:13.282Z,3.00
2022-10-11T01:44:42.802Z,2.80
2022-10-11T01:47:11.763Z,3.03
2022-10-11T01:49:39.369Z,3.50
2022-10-11T01:52:07.989Z,2.87
2022-10-11T01:55:08.556Z,2.97
2022-10-11T01:57:52.777Z,3.30
2022-10-11T02:00:22.239Z,5.00
2022-10-11T02:03:08.334Z,2.63
2022-10-11T02:05:40.965Z,3.70
2022-10-11T02:08:15.720Z,5.80
2022-10-11T02:10:45.770Z,7.03
2022-10-11T02:13:19.184Z,2.80
2022-10-11T02:15:47.390Z,3.80
2022-10-11T02:18:18.891Z,4.13
2022-10-11T02:20:46.669Z,3.83
2022-10-11T02:23:16.903Z,4.43
2022-10-11T02:25:46.054Z,5.30
2022-10-11T02:28:16.526Z,3.67
2022-10-11T02:30:45.417Z,3.20
2022-10-11T02:33:14.633Z,2.87
2022-10-11T02:35:47.146Z,3.50
2022-10-11T02:38:20.865Z,3.67
2022-10-11T02:40:51.824Z,4.13
2022-10-11T02:43:24.011Z,5.67
2022-10-11T02:45:53.733Z,3.57
2022-10-11T02:48:21.379Z,3.33
2022-10-11T02:50:50.695Z,4.30
2022-10-11T02:53:18.518Z,5.20
2022-10-11T02:55:46.576Z,4.30
2022-10-11T02:58:14.170Z,5.00
2022-10-11T03:00:41.804Z,3.80
2022-10-11T03:03:09.453Z,5.17
2022-10-11T03:05:40.691Z,4.30
2022-10-11T03:08:10.228Z,3.03
2022-10-11T03:10:38.647Z,2.80
2022-10-11T03:13:06.322Z,3.40
2022-10-11T03:15:34.378Z,3.40
2022-10-11T03:18:02.046Z,2.80
2022-10-11T03:20:29.650Z,3.13
2022-10-11T03:22:57.245Z,4.43
2022-10-11T03:25:26.200Z,2.87
2022-10-11T03:27:53.818Z,4.00
2022-10-11T03:30:21.431Z,4.53
2022-10-11T03:32:49.003Z,3.97
2022-10-11T03:35:16.636Z,4.00
2022-10-11T03:37:44.258Z,4.13
2022-10-11T03:40:13.483Z,3.80
2022-10-11T03:42:42.554Z,3.70
2022-10-11T03:45:11.467Z,5.00
2022-10-11T03:47:40.110Z,4.00
2022-10-11T03:50:08.934Z,3.20
2022-10-11T03:52:37.518Z,3.73
2022-10-11T03:55:06.454Z,3.80
2022-10-11T03:57:34.158Z,3.20
2022-10-11T04:00:03.203Z,3.50
2022-10-11T04:02:36.998Z,4.27
2022-10-11T04:05:07.222Z,4.40
2022-10-11T04:07:35.270Z,4.03
2022-10-11T04:10:02.861Z,3.60
2022-10-11T04:12:30.470Z,3.60
2022-10-11T04:14:58.040Z,5.37
2022-10-11T04:17:26.976Z,3.00
2022-10-11T04:19:54.570Z,5.60
2022-10-11T04:22:22.193Z,3.80
2022-10-11T04:24:49.789Z,4.57
2022-10-11T04:27:17.389Z,3.10
2022-10-11T04:29:44.946Z,4.00
2022-10-11T04:32:12.561Z,3.00
2022-10-11T04:34:41.685Z,4.20
2022-10-11T04:37:09.338Z,3.63
2022-10-11T04:39:37.083Z,4.43
2022-10-11T04:42:05.172Z,3.50
2022-10-11T04:44:33.053Z,3.90
2022-10-11T04:47:00.691Z,6.03
2022-10-11T04:49:28.341Z,4.80
2022-10-11T04:51:57.411Z,3.70
2022-10-11T04:54:25.270Z,3.57
2022-10-11T04:56:52.849Z,4.20
2022-10-11T04:59:20.490Z,4.13
2022-10-11T05:01:48.316Z,4.70
2022-10-11T05:04:16.018Z,4.30
2022-10-11T05:06:43.640Z,4.70
2022-10-11T05:09:12.602Z,6.53
2022-10-11T05:11:40.216Z,4.77
2022-10-11T05:14:07.988Z,5.50
2022-10-11T05:16:36.495Z,4.30
2022-10-11T05:19:04.111Z,4.97
2022-10-11T05:21:32.403Z,4.70
2022-10-11T05:24:00.105Z,7.23
2022-10-11T05:26:29.532Z,4.87
2022-10-11T05:28:57.448Z,3.97
2022-10-11T05:31:25.184Z,6.40
2022-10-11T05:33:53.096Z,5.57
2022-10-11T05:36:20.732Z,5.00
2022-10-11T05:38:48.371Z,3.93
2022-10-11T05:41:16.904Z,5.60
2022-10-11T05:43:46.103Z,4.67
2022-10-11T05:46:14.100Z,4.70
2022-10-11T05:48:41.854Z,4.40
2022-10-11T05:51:10.791Z,5.30
2022-10-11T05:53:39.084Z,5.20
2022-10-11T05:56:18.563Z,4.40
2022-10-11T05:58:47.900Z,5.70
2022-10-11T06:01:20.430Z,4.10
2022-10-11T06:03:48.157Z,4.17
2022-10-11T06:06:16.127Z,4.00
2022-10-11T06:08:44.061Z,3.60
2022-10-11T06:11:13.497Z,4.13
2022-10-11T06:13:41.540Z,4.90
2022-10-11T06:16:10.827Z,4.93
2022-10-11T06:18:38.629Z,4.20
2022-10-11T06:21:06.705Z,3.77
2022-10-11T06:23:34.307Z,4.60
2022-10-11T06:26:05.677Z,4.17
2022-10-11T06:28:34.171Z,4.87
2022-10-11T06:31:04.420Z,4.57
2022-10-11T06:33:33.483Z,4.30
2022-10-11T06:36:02.202Z,4.33
2022-10-11T06:38:30.060Z,5.90
2022-10-11T06:40:57.732Z,6.07
2022-10-11T06:43:25.346Z,4.80
2022-10-11T06:45:52.959Z,4.43
2022-10-11T06:48:20.595Z,4.10
2022-10-11T06:50:59.497Z,4.40
2022-10-11T06:53:39.230Z,4.20
2022-10-11T06:56:09.454Z,4.50
2022-10-11T06:58:37.276Z,5.33
2022-10-11T07:01:07.062Z,3.80
2022-10-11T07:03:34.866Z,4.73
2022-10-11T07:06:05.549Z,5.37
2022-10-11T07:08:33.552Z,4.30
2022-10-11T07:11:01.752Z,4.03
2022-10-11T07:13:29.357Z,6.23
2022-10-11T07:15:56.962Z,3.20
2022-10-11T07:18:24.728Z,3.60
2022-10-11T07:20:52.364Z,4.83
2022-10-11T07:23:21.280Z,6.80
2022-10-11T07:25:49.840Z,3.90
2022-10-11T07:28:17.489Z,4.60
2022-10-11T07:30:45.063Z,4.13
2022-10-11T07:33:12.633Z,3.20
2022-10-11T07:35:40.883Z,4.03
2022-10-11T07:38:12.434Z,3.73
2022-10-11T07:40:44.029Z,3.60
2022-10-11T07:43:12.342Z,3.37
2022-10-11T07:45:39.998Z,2.73
2022-10-11T07:48:08.035Z,3.60
2022-10-11T07:50:35.758Z,4.17
2022-10-11T07:53:03.875Z,2.93
2022-10-11T07:55:31.704Z,3.90
2022-10-11T07:58:00.755Z,4.03
2022-10-11T08:00:28.315Z,4.23
2022-10-11T08:02:55.926Z,3.23
2022-10-11T08:05:23.441Z,3.50
2022-10-11T08:07:51.116Z,3.93
2022-10-11T08:10:18.835Z,3.37
2022-10-11T08:12:47.952Z,3.20
2022-10-11T08:15:17.298Z,4.20
2022-10-11T08:17:44.914Z,3.77
2022-10-11T08:20:12.586Z,3.37
2022-10-11T08:22:40.333Z,2.73
2022-10-11T08:25:08.609Z,4.53
2022-10-11T08:27:36.617Z,3.00
2022-10-11T08:30:04.975Z,3.07
2022-10-11T08:32:34.085Z,3.60
2022-10-11T08:35:02.002Z,3.13
2022-10-11T08:37:29.679Z,3.40
2022-10-11T08:39:57.289Z,3.00
2022-10-11T08:42:31.645Z,2.90
2022-10-11T08:45:11.444Z,3.47
2022-10-11T08:47:42.391Z,2.87
2022-10-11T08:50:23.189Z,2.77
2022-10-11T08:52:54.106Z,3.23
2022-10-11T08:55:26.255Z,3.30
2022-10-11T08:57:56.597Z,3.23
2022-10-11T09:00:24.976Z,2.90
2022-10-11T09:03:08.408Z,3.10
2022-10-11T09:05:40.639Z,3.50
2022-10-11T09:08:12.056Z,3.07
2022-10-11T09:10:53.176Z,4.37
2022-10-11T09:13:34.448Z,3.00
2022-10-11T09:16:08.386Z,3.03
2022-10-11T09:18:50.038Z,3.27
2022-10-11T09:21:23.773Z,5.13
2022-10-11T09:24:05.584Z,5.13
2022-10-11T09:26:37.028Z,3.30
2022-10-11T09:29:11.116Z,3.03
2022-10-11T09:31:38.933Z,4.07
2022-10-11T09:34:13.222Z,5.57
2022-10-11T09:36:46.088Z,4.87
2022-10-11T09:39:21.942Z,3.57
2022-10-11T09:41:55.029Z,3.97
2022-10-11T09:44:24.543Z,2.47
2022-10-11T09:46:54.132Z,2.33
2022-10-11T09:49:25.149Z,3.50
2022-10-11T09:51:55.123Z,2.50
2022-10-11T09:54:28.085Z,3.20
2022-10-11T09:56:55.815Z,2.80
2022-10-11T09:59:27.630Z,4.40
2022-10-11T10:02:19.247Z,3.37
2022-10-11T10:05:03.680Z,2.93
2022-10-11T10:07:33.220Z,3.43
2022-10-11T10:10:01.693Z,5.10
2022-10-11T10:12:30.968Z,3.80
2022-10-11T10:15:06.448Z,3.67
2022-10-11T10:17:34.469Z,3.50
2022-10-11T10:20:05.651Z,2.80
2022-10-11T10:22:35.645Z,5.13
2022-10-11T10:25:08.025Z,3.67
2022-10-11T10:27:35.760Z,3.57
2022-10-11T10:30:14.359Z,3.40
2022-10-11T10:32:48.684Z,3.60
2022-10-11T10:35:27.755Z,3.30
2022-10-11T10:38:02.327Z,3.00
2022-10-11T10:40:41.152Z,3.83
2022-10-11T10:43:15.602Z,4.47
2022-10-11T10:46:04.872Z,4.10
2022-10-11T10:49:11.642Z,3.40
2022-10-11T10:51:34.095Z,3.10
2022-10-11T10:54:09.882Z,2.80
2022-10-11T10:56:40.755Z,2.50
2022-10-11T10:59:20.079Z,2.77
2022-10-11T11:01:57.127Z,2.37
2022-10-11T11:04:30.659Z,2.70
2022-10-11T11:07:04.514Z,4.73
2022-10-11T11:09:42.946Z,3.77
2022-10-11T11:12:23.807Z,3.00
2022-10-11T11:14:57.849Z,2.30
2022-10-11T11:17:32.963Z,3.77
2022-10-11T11:20:08.768Z,2.60
2022-10-11T11:22:44.339Z,2.70
2022-10-11T11:25:21.408Z,3.20
2022-10-11T11:27:56.800Z,2.40
2022-10-11T11:30:27.655Z,4.00
2022-10-11T11:33:00.502Z,2.60
2022-10-11T11:35:31.739Z,2.40
2022-10-11T11:38:06.623Z,2.97
2022-10-11T11:40:38.169Z,3.23
2022-10-11T11:43:08.995Z,2.37
2022-10-11T11:45:45.550Z,3.13
2022-10-11T11:48:15.091Z,3.53
2022-10-11T11:50:45.054Z,3.47
2022-10-11T11:53:16.651Z,2.67
2022-10-11T11:55:49.426Z,2.50
2022-10-11T11:58:26.480Z,3.27
2022-10-11T12:00:59.871Z,2.40
2022-10-11T12:03:29.076Z,2.13
2022-10-11T12:06:23.492Z,3.90
2022-10-11T12:09:02.037Z,3.27
2022-10-11T12:11:35.469Z,3.93
2022-10-11T12:14:17.012Z,3.37
2022-10-11T12:17:13.157Z,3.20
2022-10-11T12:19:42.978Z,2.53
2022-10-11T12:22:37.255Z,3.00
2022-10-11T12:25:43.012Z,3.70
2022-10-11T12:29:01.087Z,2.47
2022-10-11T12:31:30.916Z,2.37
2022-10-11T12:34:22.161Z,2.07
2022-10-11T12:36:50.973Z,3.00
2022-10-11T12:39:47.369Z,2.77
2022-10-11T12:42:34.482Z,3.90
2022-10-11T12:45:33.867Z,2.77
2022-10-11T12:48:18.797Z,2.57
2022-10-11T12:50:53.607Z,2.40
2022-10-11T12:53:36.016Z,2.40
2022-10-11T12:56:09.310Z,2.70
2022-10-11T12:58:41.552Z,2.40
2022-10-11T13:01:12.942Z,2.20
2022-10-11T13:03:42.148Z,1.80
2022-10-11T13:06:15.828Z,2.00
2022-10-11T13:08:46.016Z,2.27
2022-10-11T13:11:19.490Z,2.63
2022-10-11T13:13:53.393Z,3.30
2022-10-11T13:16:23.397Z,3.53
2022-10-11T13:18:56.219Z,4.03
2022-10-11T13:21:32.020Z,2.43
2022-10-11T13:24:01.839Z,3.37
2022-10-11T13:26:31.300Z,2.93
2022-10-11T13:29:01.232Z,3.07
2022-10-11T13:31:29.709Z,2.70
2022-10-11T13:33:59.092Z,3.40
2022-10-11T13:36:27.744Z,2.47
2022-10-11T13:38:57.227Z,2.63
2022-10-11T13:41:26.903Z,2.70
2022-10-11T13:43:56.167Z,2.87
2022-10-11T13:46:26.520Z,2.80
2022-10-11T13:49:06.656Z,2.30
2022-10-11T13:51:35.977Z,3.10
2022-10-11T13:54:05.840Z,2.33
2022-10-11T13:56:37.651Z,3.30
2022-10-11T13:59:05.685Z,2.80
2022-10-11T14:01:40.687Z,1.87
2022-10-11T14:04:10.002Z,2.80
2022-10-11T14:06:43.599Z,1.70
2022-10-11T14:09:19.156Z,2.30
2022-10-11T14:11:46.983Z,1.57
2022-10-11T14:14:31.897Z,2.83
2022-10-11T14:17:06.507Z,2.10
2022-10-11T14:19:34.075Z,1.97
2022-10-11T14:22:01.622Z,2.10
2022-10-11T14:24:29.245Z,2.20
2022-10-11T14:26:58.068Z,3.57
2022-10-11T14:29:27.510Z,2.00
2022-10-11T14:31:57.232Z,2.93
2022-10-11T14:34:26.957Z,2.17
2022-10-11T14:36:54.890Z,2.60
2022-10-11T14:39:24.076Z,3.23
2022-10-11T14:41:52.395Z,2.70
2022-10-11T14:44:20.921Z,12.23
2022-10-11T14:46:50.378Z,2.90
2022-10-11T14:49:20.894Z,2.37
2022-10-11T14:51:51.184Z,2.13
2022-10-11T14:54:22.222Z,2.37
2022-10-11T14:56:50.309Z,2.70
2022-10-11T14:59:19.653Z,2.90
2022-10-11T15:01:51.902Z,2.80
2022-10-11T15:04:19.663Z,3.00
2022-10-11T15:06:47.534Z,5.93
2022-10-11T15:09:17.342Z,8.60
2022-10-11T15:11:45.212Z,7.00
2022-10-11T15:14:12.716Z,7.10
2022-10-11T15:16:40.972Z,4.83
2022-10-11T15:19:12.025Z,3.80
2022-10-11T15:21:39.613Z,4.33
2022-10-11T15:24:07.761Z,3.80
2022-10-11T15:26:36.593Z,5.17
2022-10-11T15:29:04.824Z,5.20
2022-10-11T15:31:32.411Z,4.20
2022-10-11T15:34:01.777Z,3.07
2022-10-11T15:36:29.715Z,2.57
2022-10-11T15:38:57.399Z,3.83
2022-10-11T15:41:24.986Z,4.70
2022-10-11T15:43:54.263Z,3.20
2022-10-11T15:46:23.268Z,2.40
2022-10-11T15:48:51.750Z,2.27
2022-10-11T15:51:19.724Z,3.20
2022-10-11T15:53:47.429Z,3.13
2022-10-11T15:56:16.927Z,2.43
2022-10-11T15:58:44.586Z,2.23
2022-10-11T16:01:15.925Z,3.10
2022-10-11T16:03:44.512Z,2.70
2022-10-11T16:06:13.005Z,3.27
2022-10-11T16:08:41.512Z,3.70
2022-10-11T16:11:10.017Z,3.50
2022-10-11T16:13:37.988Z,3.13
2022-10-11T16:16:07.613Z,2.87
2022-10-11T16:18:36.910Z,3.53
2022-10-11T16:21:07.857Z,3.47
2022-10-11T16:23:36.563Z,2.97
2022-10-11T16:26:07.631Z,4.47
2022-10-11T16:28:35.833Z,3.30
2022-10-11T16:31:07.384Z,2.90
2022-10-11T16:33:35.124Z,2.77
2022-10-11T16:36:20.552Z,3.07
2022-10-11T16:38:48.162Z,2.63
2022-10-11T16:41:15.740Z,2.57
2022-10-11T16:43:43.370Z,2.90
2022-10-11T16:46:10.988Z,2.80
2022-10-11T16:48:38.497Z,2.13
2022-10-11T16:51:08.993Z,3.00
2022-10-11T16:53:36.792Z,2.97
2022-10-11T16:56:08.024Z,3.60
2022-10-11T16:58:36.561Z,3.03
2022-10-11T17:01:08.424Z,3.03
2022-10-11T17:03:36.107Z,3.83
2022-10-11T17:06:04.785Z,2.60
2022-10-11T17:08:34.836Z,2.73
2022-10-11T17:11:02.638Z,2.67
2022-10-11T17:13:30.709Z,3.13
2022-10-11T17:15:58.355Z,3.97
2022-10-11T17:18:26.218Z,2.90
2022-10-11T17:21:01.590Z,3.03
2022-10-11T17:23:29.176Z,3.23
2022-10-11T17:25:58.126Z,3.53
2022-10-11T17:28:26.495Z,3.80
2022-10-11T17:30:55.446Z,4.67
2022-10-11T17:33:23.127Z,3.30
2022-10-11T17:35:50.877Z,3.30
2022-10-11T17:38:19.791Z,4.70
2022-10-11T17:40:47.747Z,4.63
2022-10-11T17:43:16.769Z,3.63
2022-10-11T17:45:44.257Z,4.47
2022-10-11T17:48:11.764Z,4.60
2022-10-11T17:50:41.798Z,5.50
2022-10-11T17:53:09.410Z,4.70
2022-10-11T17:55:42.065Z,4.33
2022-10-11T17:58:09.901Z,3.83
2022-10-11T18:00:39.062Z,3.90
2022-10-11T18:03:07.180Z,4.93
2022-10-11T18:05:35.018Z,4.80
2022-10-11T18:08:02.533Z,4.90
2022-10-11T18:10:30.129Z,3.97
2022-10-11T18:12:57.791Z,4.77
2022-10-11T18:15:25.720Z,3.57
2022-10-11T18:17:54.605Z,5.00
2022-10-11T18:20:22.314Z,3.83
2022-10-11T18:22:50.479Z,5.00
2022-10-11T18:25:18.162Z,4.57
2022-10-11T18:27:45.792Z,5.60
2022-10-11T18:30:13.408Z,5.03
2022-10-11T18:32:41.103Z,5.13
2022-10-11T18:35:10.655Z,5.40
2022-10-11T18:37:38.263Z,5.73
2022-10-11T18:40:06.635Z,6.67
2022-10-11T18:42:34.271Z,5.73
2022-10-11T18:45:01.881Z,7.40
2022-10-11T18:47:29.496Z,5.03
2022-10-11T18:49:57.026Z,6.40
2022-10-11T18:52:25.863Z,5.23
2022-10-11T18:54:53.397Z,5.80
2022-10-11T18:57:21.036Z,6.07
2022-10-11T18:59:48.659Z,6.70
2022-10-11T19:02:16.199Z,5.43
2022-10-11T19:04:43.786Z,5.80
2022-10-11T19:07:11.298Z,5.80
2022-10-11T19:09:40.258Z,8.63
2022-10-11T19:12:07.782Z,6.53
2022-10-11T19:14:37.594Z,5.70
2022-10-11T19:17:05.226Z,6.17
2022-10-11T19:19:33.141Z,6.10
2022-10-11T19:22:01.054Z,6.90
2022-10-11T19:24:30.289Z,6.17
2022-10-11T19:27:02.626Z,5.77
2022-10-11T19:29:31.193Z,6.80
2022-10-11T19:32:00.419Z,6.10
2022-10-11T19:34:28.775Z,7.03
2022-10-11T19:36:56.988Z,7.30
2022-10-11T19:39:25.467Z,6.97
2022-10-11T19:41:53.100Z,6.27
2022-10-11T19:44:22.127Z,7.67
2022-10-11T19:46:52.357Z,7.40
2022-10-11T19:49:22.464Z,8.70
2022-10-11T19:51:50.075Z,7.60
2022-10-11T19:54:17.951Z,7.33
2022-10-11T19:56:45.686Z,6.50
2022-10-11T19:59:14.411Z,9.13
2022-10-11T20:01:47.903Z,8.50
2022-10-11T20:04:39.979Z,7.80
2022-10-11T20:07:06.583Z,7.63
2022-10-11T20:09:34.207Z,8.90
2022-10-11T20:12:01.770Z,7.97
2022-10-11T20:14:29.349Z,8.70
2022-10-11T20:16:58.284Z,9.83
2022-10-11T20:19:31.150Z,8.70
2022-10-11T20:21:59.291Z,7.67
2022-10-11T20:24:28.923Z,8.23
2022-10-11T20:26:56.605Z,8.40
2022-10-11T20:29:25.185Z,9.27
2022-10-11T20:31:52.858Z,10.27
2022-10-11T20:34:21.837Z,9.03
2022-10-11T20:36:49.596Z,11.13
2022-10-11T20:39:17.799Z,8.63
2022-10-11T20:41:45.339Z,9.90
2022-10-11T20:44:15.732Z,9.43
2022-10-11T20:46:43.365Z,11.03
2022-10-11T20:49:13.771Z,10.73
2022-10-11T20:51:43.889Z,10.43
2022-10-11T20:54:11.907Z,9.37
2022-10-11T20:56:39.805Z,10.00
2022-10-11T20:59:08.128Z,9.07
2022-10-11T21:01:37.813Z,9.87
2022-10-11T21:04:06.468Z,9.67
2022-10-11T21:06:34.853Z,10.53
2022-10-11T21:09:04.403Z,9.00
2022-10-11T21:11:33.752Z,9.90
2022-10-11T21:14:02.924Z,10.23
2022-10-11T21:16:31.023Z,8.90
2022-10-11T21:19:00.049Z,11.33
2022-10-11T21:21:28.983Z,9.63
2022-10-11T21:23:57.362Z,9.33
2022-10-11T21:26:27.328Z,10.90
2022-10-11T21:28:54.936Z,10.30
2022-10-11T21:31:23.191Z,9.70
2022-10-11T21:33:50.801Z,10.50
2022-10-11T21:36:19.872Z,10.10
2022-10-11T21:38:47.970Z,9.33
2022-10-11T21:41:16.639Z,11.83
2022-10-11T21:43:45.482Z,10.53
2022-10-11T21:46:14.659Z,10.70
2022-10-11T21:48:42.362Z,9.93
2022-10-11T21:53:41.828Z,10.70
2022-10-11T21:56:09.735Z,11.27
2022-10-11T21:58:37.512Z,11.30
2022-10-11T22:01:07.084Z,10.90
2022-10-11T22:03:34.852Z,9.40
2022-10-11T22:06:03.297Z,10.43
2022-10-11T22:08:31.118Z,9.37
2022-10-11T22:11:01.147Z,9.57
2022-10-11T22:13:31.028Z,9.70
2022-10-11T22:15:58.718Z,10.90
2022-10-11T22:18:32.221Z,10.60
2022-10-11T22:21:05.717Z,8.77
2022-10-11T22:23:33.642Z,11.30
2022-10-11T22:26:04.697Z,9.57
2022-10-11T22:28:32.478Z,9.83
2022-10-11T22:31:00.560Z,11.00
2022-10-11T22:33:29.786Z,10.10
2022-10-11T22:35:57.725Z,10.50
2022-10-11T22:38:25.831Z,12.37
2022-10-11T22:40:53.835Z,10.17
2022-10-11T22:43:21.638Z,10.27
2022-10-11T22:45:49.283Z,9.83
2022-10-11T22:48:16.973Z,10.60
2022-10-11T22:50:45.990Z,10.47
2022-10-11T22:53:14.647Z,8.60
2022-10-11T22:55:42.798Z,11.60
2022-10-11T22:58:10.738Z,10.67
2022-10-11T23:00:38.295Z,12.07
2022-10-11T23:03:07.111Z,10.47
2022-10-11T23:05:35.086Z,10.57
2022-10-11T23:08:04.267Z,10.50
2022-10-11T23:10:32.060Z,9.97
2022-10-11T23:13:00.025Z,11.03
2022-10-11T23:15:27.619Z,10.93
2022-10-11T23:17:55.443Z,10.97
2022-10-11T23:20:23.034Z,11.63
2022-10-11T23:22:51.402Z,11.03
2022-10-11T23:25:21.225Z,10.73
2022-10-11T23:27:48.994Z,13.13
2022-10-11T23:30:17.004Z,10.23
2022-10-11T23:32:44.621Z,11.30
2022-10-11T23:35:12.253Z,10.47
2022-10-11T23:37:40.098Z,11.77
2022-10-11T23:40:09.515Z,11.83
2022-10-11T23:42:38.688Z,11.00
2022-10-11T23:45:07.504Z,11.53
2022-10-11T23:47:35.383Z,11.17
2022-10-11T23:50:06.673Z,10.83
2022-10-11T23:52:34.314Z,11.00
2022-10-11T23:55:02.288Z,10.73
2022-10-11T23:57:30.083Z,11.27
2022-10-11T23:59:59.265Z,10.90
